Arthur Maersk — OXJH2 — position and weather

sailwx.info

Track history (hours):
 
Tides and Currents Weather Stations Pressure Air Temp Water Temp Dewpoint Dewpoint Depression Visibility Wind Speed Wind Dir Waves Ship Positions

Arthur Maersk

Last reported at 2018-Apr-12 14:13 UTC. Time now 2018-Apr-26 17:19 UTC.
Position N 41°40' E 141°33'.
Warning: this ship's position is 14 days out of date.

Length 352 m; draft 12.8 m.

Type: Cargo ship. MMSI: 220221000.

Date/timePositionNaut miles runAvg speedWind from/ knotsBaromVisibWave heightAir tempDewpointWater temp
2018-Apr-12 14:13N 41°40' E 141°33'521.7
2018-Apr-12 14:00N 41°40' E 141°26'1020.3
2018-Apr-12 13:30N 41°40' E 141°13'1121.9
2018-Apr-12 13:00N 41°39' E 140°58'1223.3
2018-Apr-12 12:30N 41°34' E 140°45'1223.4
2018-Apr-12 12:01N 41°27' E 140°32'1223.5
2018-Apr-12 11:30N 41°21' E 140°19'58820.0
2018-Apr-11 06:10N 35°26' E 130°21'1 3.5
2018-Apr-11 06:00N 35°26' E 130°21'1514.0
2018-Apr-11 04:57N 35°20' E 130°05'920.8
2018-Apr-11 04:30N 35°16' E 129°54'1120.8
2018-Apr-11 03:59N 35°12' E 129°42'3320.4
2018-Apr-11 02:21N 34°59' E 129°05'440 8.9
2018-Apr-09 01:03N 30°37' E 122°04'0 0.0
2018-Apr-09 00:49N 30°37' E 122°04'1 0.1
2018-Apr-08 17:17N 30°38' E 122°03'2 4.8
2018-Apr-08 16:50N 30°36' E 122°05'513.4
2018-Apr-08 16:27N 30°34' E 122°10'11 9.2
2018-Apr-08 15:16N 30°33' E 122°23'0 0.5
2018-Apr-08 14:59N 30°33' E 122°22'5 9.4
2018-Apr-08 14:29N 30°32' E 122°28'5 7.6
2018-Apr-08 13:51N 30°29' E 122°32'  
2018-Apr-03 08:30N 25°56' E 120°39'815.5
2018-Apr-03 08:01N 25°49' E 120°35'815.1
2018-Apr-03 07:30N 25°43' E 120°31'714.8
2018-Apr-03 07:00N 25°37' E 120°26'714.6
2018-Apr-03 06:30N 25°30' E 120°22'714.1
2018-Apr-03 06:00N 25°25' E 120°18'814.3
2018-Apr-03 05:29N 25°18' E 120°13'714.2
2018-Apr-03 04:59N 25°13' E 120°08'714.3
2018-Apr-03 04:30N 25°08' E 120°03'714.3
2018-Apr-03 03:59N 25°03' E 119°57'8813.2
2018-Apr-02 21:19N 24°03' E 118°45'412.1
2018-Apr-02 21:00N 24°01' E 118°43'611.9
2018-Apr-02 20:30N 23°57' E 118°38'711.8
2018-Apr-02 19:56N 23°52' E 118°32'511.7
2018-Apr-02 19:30N 23°49' E 118°28'611.5
2018-Apr-02 19:00N 23°45' E 118°24'711.7
2018-Apr-02 18:22N 23°40' E 118°18'411.7
2018-Apr-02 18:00N 23°37' E 118°15'612.1
2018-Apr-02 17:30N 23°32' E 118°10'712.4
2018-Apr-02 16:55N 23°27' E 118°04'613.0
2018-Apr-02 16:30N 23°24' E 117°60'913.3
2018-Apr-02 15:51N 23°18' E 117°53'813.1
2018-Apr-02 15:16N 23°15' E 117°45'413.7
2018-Apr-02 14:58N 23°13' E 117°41'713.5
2018-Apr-02 14:26N 23°10' E 117°34'  
Track history (hours):
 
Tides and Currents Weather Stations Pressure Air Temp Water Temp Dewpoint Dewpoint Depression Visibility Wind Speed Wind Dir Waves Ship Positions

Arthur Maersk

Last reported at 2018-Apr-12 14:13 UTC. Time now 2018-Apr-26 17:19 UTC.
Position N 41°40' E 141°33'.
Warning: this ship's position is 14 days out of date.

Length 352 m; draft 12.8 m.

Type: Cargo ship. MMSI: 220221000.

Date/timePositionNaut miles runAvg speedWind from/ knotsBaromVisibWave heightAir tempDewpointWater temp
2018-Apr-12 14:13N 41°40' E 141°33'521.7
2018-Apr-12 14:00N 41°40' E 141°26'1020.3
2018-Apr-12 13:30N 41°40' E 141°13'1121.9
2018-Apr-12 13:00N 41°39' E 140°58'1223.3
2018-Apr-12 12:30N 41°34' E 140°45'1223.4
2018-Apr-12 12:01N 41°27' E 140°32'1223.5
2018-Apr-12 11:30N 41°21' E 140°19'58820.0
2018-Apr-11 06:10N 35°26' E 130°21'1 3.5
2018-Apr-11 06:00N 35°26' E 130°21'1514.0
2018-Apr-11 04:57N 35°20' E 130°05'920.8
2018-Apr-11 04:30N 35°16' E 129°54'1120.8
2018-Apr-11 03:59N 35°12' E 129°42'3320.4
2018-Apr-11 02:21N 34°59' E 129°05'440 8.9
2018-Apr-09 01:03N 30°37' E 122°04'0 0.0
2018-Apr-09 00:49N 30°37' E 122°04'1 0.1
2018-Apr-08 17:17N 30°38' E 122°03'2 4.8
2018-Apr-08 16:50N 30°36' E 122°05'513.4
2018-Apr-08 16:27N 30°34' E 122°10'11 9.2
2018-Apr-08 15:16N 30°33' E 122°23'0 0.5
2018-Apr-08 14:59N 30°33' E 122°22'5 9.4
2018-Apr-08 14:29N 30°32' E 122°28'5 7.6
2018-Apr-08 13:51N 30°29' E 122°32'  
2018-Apr-03 08:30N 25°56' E 120°39'815.5
2018-Apr-03 08:01N 25°49' E 120°35'815.1
2018-Apr-03 07:30N 25°43' E 120°31'714.8
2018-Apr-03 07:00N 25°37' E 120°26'714.6
2018-Apr-03 06:30N 25°30' E 120°22'714.1
2018-Apr-03 06:00N 25°25' E 120°18'814.3
2018-Apr-03 05:29N 25°18' E 120°13'714.2
2018-Apr-03 04:59N 25°13' E 120°08'714.3
2018-Apr-03 04:30N 25°08' E 120°03'714.3
2018-Apr-03 03:59N 25°03' E 119°57'8813.2
2018-Apr-02 21:19N 24°03' E 118°45'412.1
2018-Apr-02 21:00N 24°01' E 118°43'611.9
2018-Apr-02 20:30N 23°57' E 118°38'711.8
2018-Apr-02 19:56N 23°52' E 118°32'511.7
2018-Apr-02 19:30N 23°49' E 118°28'611.5
2018-Apr-02 19:00N 23°45' E 118°24'711.7
2018-Apr-02 18:22N 23°40' E 118°18'411.7
2018-Apr-02 18:00N 23°37' E 118°15'612.1
2018-Apr-02 17:30N 23°32' E 118°10'712.4
2018-Apr-02 16:55N 23°27' E 118°04'613.0
2018-Apr-02 16:30N 23°24' E 117°60'913.3
2018-Apr-02 15:51N 23°18' E 117°53'813.1
2018-Apr-02 15:16N 23°15' E 117°45'413.7
2018-Apr-02 14:58N 23°13' E 117°41'713.5
2018-Apr-02 14:26N 23°10' E 117°34'  

Dump ship's entire track history